createdAt,value
2018-12-23T00:00:26.081Z,14.60
2018-12-23T00:01:29.825Z,14.75
2018-12-23T00:02:33.664Z,14.10
2018-12-23T00:03:37.414Z,14.60
2018-12-23T00:04:41.148Z,15.35
2018-12-23T00:05:44.907Z,14.63
2018-12-23T00:06:48.693Z,14.75
2018-12-23T00:07:52.497Z,14.45
2018-12-23T00:08:56.222Z,14.68
2018-12-23T00:10:00.004Z,15.35
2018-12-23T00:11:03.744Z,14.45
2018-12-23T00:12:07.510Z,14.23
2018-12-23T00:13:11.312Z,13.53
2018-12-23T00:14:15.149Z,14.33
2018-12-23T00:15:18.894Z,13.32
2018-12-23T00:16:22.683Z,13.93
2018-12-23T00:17:26.405Z,13.88
2018-12-23T00:18:30.141Z,14.05
2018-12-23T00:19:33.969Z,15.50
2018-12-23T00:20:37.739Z,15.55
2018-12-23T00:21:41.468Z,14.30
2018-12-23T00:22:46.154Z,14.50
2018-12-23T00:23:49.854Z,15.00
2018-12-23T00:24:53.659Z,16.07
2018-12-23T00:25:57.469Z,15.75
2018-12-23T00:27:01.322Z,16.00
2018-12-23T00:28:05.094Z,14.83
2018-12-23T00:29:08.904Z,16.35
2018-12-23T00:30:12.642Z,16.17
2018-12-23T00:31:16.384Z,16.15
2018-12-23T00:32:20.238Z,16.55
2018-12-23T00:33:25.550Z,15.93
2018-12-23T00:34:29.502Z,18.98
2018-12-23T00:35:33.266Z,16.40
2018-12-23T00:36:36.974Z,18.40
2018-12-23T00:37:40.768Z,18.15
2018-12-23T00:38:44.541Z,17.77
2018-12-23T00:39:48.435Z,15.32
2018-12-23T00:40:52.235Z,18.45
2018-12-23T00:41:56.341Z,16.93
2018-12-23T00:43:00.096Z,15.70
2018-12-23T00:44:03.900Z,16.25
2018-12-23T00:45:07.774Z,15.50
2018-12-23T00:46:11.535Z,15.98
2018-12-23T00:47:15.317Z,16.85
2018-12-23T00:48:19.063Z,16.10
2018-12-23T00:49:22.809Z,15.68
2018-12-23T00:50:27.609Z,16.42
2018-12-23T00:51:31.291Z,15.95
2018-12-23T00:52:35.102Z,16.12
2018-12-23T00:53:38.880Z,16.30
2018-12-23T00:54:42.696Z,14.80
2018-12-23T00:55:46.510Z,15.83
2018-12-23T00:56:50.341Z,15.58
2018-12-23T00:57:54.096Z,15.78
2018-12-23T00:58:57.851Z,14.73
2018-12-23T01:00:01.597Z,15.30
2018-12-23T01:01:05.331Z,18.98
2018-12-23T01:02:09.113Z,17.57
2018-12-23T01:03:13.862Z,19.42
2018-12-23T01:04:17.613Z,19.80
2018-12-23T01:05:28.746Z,17.05
2018-12-23T01:06:27.510Z,15.78
2018-12-23T01:07:31.361Z,14.60
2018-12-23T01:08:35.048Z,14.47
2018-12-23T01:09:38.844Z,14.45
2018-12-23T01:10:42.557Z,14.35
2018-12-23T01:11:46.310Z,15.05
2018-12-23T01:12:50.096Z,15.28
2018-12-23T01:13:53.789Z,16.52
2018-12-23T01:14:57.566Z,16.02
2018-12-23T01:16:01.342Z,15.08
2018-12-23T01:17:05.110Z,14.40
2018-12-23T01:18:08.864Z,13.58
2018-12-23T01:19:12.623Z,14.78
2018-12-23T01:20:16.359Z,14.43
2018-12-23T01:21:20.203Z,14.03
2018-12-23T01:22:23.943Z,13.90
2018-12-23T01:23:27.629Z,15.10
2018-12-23T01:24:31.374Z,14.10
2018-12-23T01:25:35.197Z,14.70
2018-12-23T01:26:38.972Z,14.23
2018-12-23T01:27:42.693Z,15.15
2018-12-23T01:28:46.475Z,14.03
2018-12-23T01:29:50.244Z,13.80
2018-12-23T01:30:54.009Z,17.80
2018-12-23T01:31:57.768Z,14.55
2018-12-23T01:33:01.520Z,21.07
2018-12-23T01:34:05.463Z,14.75
2018-12-23T01:35:09.266Z,13.88
2018-12-23T01:36:13.046Z,13.22
2018-12-23T01:37:16.766Z,12.47
2018-12-23T01:38:20.434Z,13.78
2018-12-23T01:39:24.545Z,13.08
2018-12-23T01:40:28.305Z,14.25
2018-12-23T01:41:32.103Z,14.23
2018-12-23T01:42:35.927Z,13.28
2018-12-23T01:43:39.817Z,13.90
2018-12-23T01:44:43.554Z,12.78
2018-12-23T01:45:47.376Z,13.40
2018-12-23T01:46:51.144Z,13.45
2018-12-23T01:47:55.642Z,13.88
2018-12-23T01:48:59.397Z,12.78
2018-12-23T01:50:03.234Z,12.93
2018-12-23T01:51:06.935Z,11.97
2018-12-23T01:52:10.790Z,13.10
2018-12-23T01:53:14.557Z,13.28
2018-12-23T01:54:18.390Z,12.58
2018-12-23T01:55:22.173Z,12.85
2018-12-23T01:56:25.910Z,14.10
2018-12-23T01:57:29.718Z,12.73
2018-12-23T01:58:33.402Z,12.78
2018-12-23T01:59:37.145Z,12.80
2018-12-23T02:00:40.954Z,13.53
2018-12-23T02:01:44.687Z,13.13
2018-12-23T02:02:48.411Z,12.53
2018-12-23T02:03:52.084Z,13.15
2018-12-23T02:04:56.017Z,12.90
2018-12-23T02:05:59.779Z,12.90
2018-12-23T02:07:03.558Z,12.37
2018-12-23T02:08:07.270Z,14.40
2018-12-23T02:09:11.051Z,12.60
2018-12-23T02:10:14.793Z,13.70
2018-12-23T02:11:18.564Z,12.50
2018-12-23T02:12:22.242Z,13.95
2018-12-23T02:13:26.193Z,13.05
2018-12-23T02:14:30.434Z,14.28
2018-12-23T02:15:34.172Z,13.62
2018-12-23T02:16:37.972Z,15.65
2018-12-23T02:17:41.702Z,11.60
2018-12-23T02:18:46.117Z,12.28
2018-12-23T02:19:49.897Z,12.88
2018-12-23T02:20:53.624Z,13.03
2018-12-23T02:21:57.326Z,13.05
2018-12-23T02:23:01.109Z,12.82
2018-12-23T02:24:04.858Z,14.68
2018-12-23T02:25:08.671Z,18.02
2018-12-23T02:26:12.357Z,13.80
2018-12-23T02:27:16.078Z,13.15
2018-12-23T02:28:19.884Z,13.65
2018-12-23T02:29:23.582Z,13.40
2018-12-23T02:30:27.311Z,12.82
2018-12-23T02:31:31.096Z,12.90
2018-12-23T02:32:36.386Z,12.82
2018-12-23T02:33:40.125Z,12.65
2018-12-23T02:34:43.945Z,13.10
2018-12-23T02:35:55.450Z,13.25
2018-12-23T02:36:53.448Z,13.45
2018-12-23T02:37:57.215Z,12.25
2018-12-23T02:39:00.972Z,13.28
2018-12-23T02:40:04.707Z,12.60
2018-12-23T02:41:08.471Z,13.03
2018-12-23T02:42:12.228Z,15.70
2018-12-23T02:43:15.883Z,12.30
2018-12-23T02:44:19.641Z,12.30
2018-12-23T02:45:23.362Z,12.50
2018-12-23T02:46:27.096Z,14.28
2018-12-23T02:47:30.878Z,12.45
2018-12-23T02:48:35.071Z,12.85
2018-12-23T02:49:38.801Z,12.78
2018-12-23T02:50:42.559Z,12.40
2018-12-23T02:51:46.337Z,13.45
2018-12-23T02:52:50.023Z,14.45
2018-12-23T02:53:53.726Z,13.43
2018-12-23T02:54:57.535Z,12.82
2018-12-23T02:56:01.271Z,11.78
2018-12-23T02:57:05.008Z,11.90
2018-12-23T02:58:08.774Z,13.13
2018-12-23T02:59:12.529Z,12.58
2018-12-23T03:00:16.251Z,11.85
2018-12-23T03:01:20.145Z,12.95
2018-12-23T03:02:23.894Z,12.63
2018-12-23T03:03:27.635Z,12.90
2018-12-23T03:04:31.398Z,12.80
2018-12-23T03:05:35.218Z,12.82
2018-12-23T03:06:39.470Z,12.45
2018-12-23T03:07:43.289Z,10.95
2018-12-23T03:08:46.995Z,12.63
2018-12-23T03:09:50.922Z,11.55
2018-12-23T03:10:54.697Z,11.43
2018-12-23T03:11:58.503Z,11.70
2018-12-23T03:13:02.406Z,12.10
2018-12-23T03:14:06.166Z,11.80
2018-12-23T03:15:09.937Z,13.38
2018-12-23T03:16:13.675Z,11.38
2018-12-23T03:17:17.547Z,10.85
2018-12-23T03:18:21.486Z,10.98
2018-12-23T03:19:25.266Z,11.00
2018-12-23T03:20:28.990Z,12.40
2018-12-23T03:21:32.802Z,11.22
2018-12-23T03:22:36.530Z,11.40
2018-12-23T03:23:40.330Z,11.00
2018-12-23T03:24:44.128Z,11.55
2018-12-23T03:25:47.874Z,11.60
2018-12-23T03:26:51.615Z,10.80
2018-12-23T03:27:55.451Z,11.60
2018-12-23T03:28:59.231Z,12.33
2018-12-23T03:30:02.985Z,10.98
2018-12-23T03:31:07.714Z,10.38
2018-12-23T03:32:11.492Z,11.65
2018-12-23T03:33:15.374Z,12.45
2018-12-23T03:34:19.103Z,11.25
2018-12-23T03:35:22.896Z,11.90
2018-12-23T03:38:17.262Z,11.28
2018-12-23T03:39:34.513Z,10.53
2018-12-23T03:40:51.325Z,11.95
2018-12-23T03:42:08.284Z,11.55
2018-12-23T03:43:25.051Z,11.70
2018-12-23T03:44:42.165Z,10.93
2018-12-23T03:45:59.266Z,11.25
2018-12-23T03:47:16.152Z,10.50
2018-12-23T03:48:32.963Z,10.70
2018-12-23T03:49:50.060Z,9.93
2018-12-23T03:51:07.119Z,11.38
2018-12-23T03:52:23.992Z,10.65
2018-12-23T03:53:40.706Z,11.18
2018-12-23T03:54:57.418Z,11.10
2018-12-23T03:56:14.322Z,10.72
2018-12-23T03:57:31.409Z,11.10
2018-12-23T03:58:48.284Z,11.65
2018-12-23T04:00:05.055Z,10.50
2018-12-23T04:01:21.653Z,10.75
2018-12-23T04:02:38.184Z,12.20
2018-12-23T04:03:54.946Z,11.08
2018-12-23T04:05:12.977Z,12.75
2018-12-23T04:06:29.927Z,11.57
2018-12-23T04:07:46.681Z,11.22
2018-12-23T04:09:05.461Z,11.15
2018-12-23T04:10:22.182Z,11.40
2018-12-23T04:11:38.768Z,12.33
2018-12-23T04:12:55.565Z,12.53
2018-12-23T04:14:12.538Z,11.93
2018-12-23T04:15:29.021Z,11.40
2018-12-23T04:16:45.887Z,12.00
2018-12-23T04:18:02.710Z,12.15
2018-12-23T04:19:19.611Z,14.93
2018-12-23T04:20:36.531Z,12.70
2018-12-23T04:21:53.337Z,11.60
2018-12-23T04:23:10.227Z,12.25
2018-12-23T04:24:27.001Z,11.45
2018-12-23T04:25:43.682Z,11.20
2018-12-23T04:27:00.413Z,12.15
2018-12-23T04:28:16.909Z,12.70
2018-12-23T04:29:33.659Z,24.50
2018-12-23T04:30:51.003Z,11.90
2018-12-23T04:32:07.907Z,11.80
2018-12-23T04:33:24.721Z,23.77
2018-12-23T04:34:41.561Z,13.28
2018-12-23T04:35:58.816Z,11.28
2018-12-23T04:37:16.058Z,10.75
2018-12-23T04:38:32.612Z,11.10
2018-12-23T04:39:49.860Z,11.28
2018-12-23T04:41:07.146Z,10.28
2018-12-23T04:42:23.793Z,11.65
2018-12-23T04:43:40.386Z,14.28
2018-12-23T04:44:57.311Z,10.43
2018-12-23T04:46:14.183Z,11.08
2018-12-23T04:47:31.116Z,10.65
2018-12-23T04:48:47.963Z,13.03
2018-12-23T04:50:04.464Z,9.88
2018-12-23T04:51:22.727Z,9.80
2018-12-23T04:52:39.272Z,19.50
2018-12-23T04:53:56.687Z,12.10
2018-12-23T04:55:13.186Z,9.30
2018-12-23T04:56:29.952Z,10.38
2018-12-23T04:57:46.649Z,18.87
2018-12-23T04:59:03.152Z,15.80
2018-12-23T05:00:19.535Z,16.05
2018-12-23T05:01:36.096Z,9.30
2018-12-23T05:02:53.320Z,10.40
2018-12-23T05:04:10.593Z,10.63
2018-12-23T05:05:27.329Z,18.95
2018-12-23T05:06:44.078Z,10.60
2018-12-23T05:08:01.124Z,12.20
2018-12-23T05:09:17.791Z,9.73
2018-12-23T05:10:34.518Z,10.50
2018-12-23T05:11:51.475Z,9.18
2018-12-23T05:13:08.213Z,9.58
2018-12-23T05:14:25.176Z,10.08
2018-12-23T05:15:42.054Z,9.68
2018-12-23T05:16:58.584Z,9.23
2018-12-23T05:18:15.374Z,9.28
2018-12-23T05:19:32.484Z,9.25
2018-12-23T05:20:49.780Z,9.35
2018-12-23T05:22:06.321Z,10.25
2018-12-23T05:23:22.905Z,9.40
2018-12-23T05:24:39.441Z,9.85
2018-12-23T05:25:56.165Z,9.35
2018-12-23T05:27:13.399Z,11.28
2018-12-23T05:28:30.597Z,12.78
2018-12-23T05:29:47.498Z,9.93
2018-12-23T05:31:04.291Z,9.90
2018-12-23T05:32:21.260Z,9.20
2018-12-23T05:33:37.862Z,10.05
2018-12-23T05:34:54.783Z,9.98
2018-12-23T05:36:11.959Z,9.93
2018-12-23T05:37:28.476Z,9.63
2018-12-23T05:38:45.631Z,10.80
2018-12-23T05:40:02.153Z,9.30
2018-12-23T05:41:18.656Z,9.33
2018-12-23T05:42:35.203Z,9.45
2018-12-23T05:43:51.908Z,9.20
2018-12-23T05:45:08.893Z,8.70
2018-12-23T05:46:25.622Z,8.90
2018-12-23T05:47:42.313Z,8.73
2018-12-23T05:48:59.611Z,10.65
2018-12-23T05:50:16.348Z,8.35
2018-12-23T05:51:32.996Z,9.30
2018-12-23T05:52:49.528Z,8.10
2018-12-23T05:54:05.954Z,8.58
2018-12-23T05:55:22.799Z,8.10
2018-12-23T05:56:39.363Z,8.25
2018-12-23T05:57:56.669Z,9.40
2018-12-23T05:59:13.773Z,8.55
2018-12-23T06:00:30.427Z,10.72
2018-12-23T06:01:47.035Z,8.83
2018-12-23T06:03:03.502Z,8.95
2018-12-23T06:04:20.117Z,8.25
2018-12-23T06:05:36.946Z,8.83
2018-12-23T06:07:00.887Z,8.93
2018-12-23T06:08:12.826Z,7.58
2018-12-23T06:09:29.918Z,8.90
2018-12-23T06:10:46.895Z,8.50
2018-12-23T06:12:03.902Z,8.48
2018-12-23T06:13:20.775Z,8.83
2018-12-23T06:14:37.549Z,8.35
2018-12-23T06:15:54.303Z,8.78
2018-12-23T06:17:11.089Z,8.55
2018-12-23T06:18:28.523Z,9.35
2018-12-23T06:19:45.442Z,9.88
2018-12-23T06:21:02.255Z,8.98
2018-12-23T06:22:18.841Z,8.90
2018-12-23T06:23:35.960Z,8.88
2018-12-23T06:24:52.989Z,9.75
2018-12-23T06:26:09.601Z,9.23
2018-12-23T06:27:26.803Z,8.90
2018-12-23T06:28:45.289Z,8.75
2018-12-23T06:30:02.001Z,9.58
2018-12-23T06:31:18.734Z,9.78
2018-12-23T06:32:35.708Z,10.03
2018-12-23T06:33:53.006Z,9.43
2018-12-23T06:35:10.080Z,9.25
2018-12-23T06:36:26.863Z,9.85
2018-12-23T06:37:43.370Z,9.33
2018-12-23T06:38:59.842Z,10.28
2018-12-23T06:40:17.091Z,9.28
2018-12-23T06:41:33.650Z,10.38
2018-12-23T06:42:50.231Z,9.35
2018-12-23T06:44:07.306Z,10.18
2018-12-23T06:45:24.575Z,9.45
2018-12-23T06:46:41.174Z,9.70
2018-12-23T06:47:57.960Z,9.98
2018-12-23T06:49:14.489Z,9.38
2018-12-23T06:50:31.572Z,10.00
2018-12-23T06:51:48.851Z,10.58
2018-12-23T06:53:05.422Z,10.00
2018-12-23T06:54:22.481Z,9.70
2018-12-23T06:55:39.691Z,10.30
2018-12-23T06:56:56.147Z,9.20
2018-12-23T06:58:13.203Z,9.70
2018-12-23T06:59:30.471Z,10.40
2018-12-23T07:00:47.487Z,8.75
2018-12-23T07:02:04.119Z,8.78
2018-12-23T07:03:21.266Z,9.80
2018-12-23T07:04:38.523Z,9.28
2018-12-23T07:05:54.946Z,9.23
2018-12-23T07:07:18.649Z,9.55
2018-12-23T07:08:29.965Z,10.40
2018-12-23T07:09:47.024Z,9.58
2018-12-23T07:11:04.292Z,9.63
2018-12-23T07:12:20.737Z,9.95
2018-12-23T07:13:37.159Z,9.48
2018-12-23T07:14:54.199Z,9.05
2018-12-23T07:16:10.891Z,9.45
2018-12-23T07:17:27.623Z,9.50
2018-12-23T07:18:44.124Z,9.80
2018-12-23T07:20:01.481Z,9.93
2018-12-23T07:21:18.556Z,11.15
2018-12-23T07:22:35.520Z,9.13
2018-12-23T07:23:52.154Z,9.68
2018-12-23T07:25:08.855Z,9.90
2018-12-23T07:26:25.555Z,9.38
2018-12-23T07:27:42.356Z,8.93
2018-12-23T07:28:59.179Z,10.80
2018-12-23T07:30:16.296Z,9.78
2018-12-23T07:31:32.800Z,9.45
2018-12-23T07:32:49.368Z,10.50
2018-12-23T07:34:06.271Z,9.80
2018-12-23T07:35:22.947Z,9.45
2018-12-23T07:36:39.816Z,10.60
2018-12-23T07:37:57.350Z,14.85
2018-12-23T07:39:14.008Z,9.38
2018-12-23T07:40:30.663Z,10.15
2018-12-23T07:41:47.615Z,10.28
2018-12-23T07:43:03.991Z,18.75
2018-12-23T07:44:21.107Z,9.63
2018-12-23T07:45:38.344Z,9.70
2018-12-23T07:46:54.991Z,15.20
2018-12-23T07:48:11.891Z,9.45
2018-12-23T07:49:28.732Z,9.93
2018-12-23T07:50:45.771Z,10.48
2018-12-23T07:52:03.079Z,9.88
2018-12-23T07:53:20.226Z,9.20
2018-12-23T07:54:36.891Z,9.20
2018-12-23T07:55:54.191Z,11.05
2018-12-23T07:57:10.821Z,10.32
2018-12-23T07:58:27.641Z,9.38
2018-12-23T07:59:44.144Z,10.58
2018-12-23T08:01:00.719Z,8.65
2018-12-23T08:02:18.177Z,8.93
2018-12-23T08:03:35.575Z,9.18
2018-12-23T08:04:51.976Z,9.93
2018-12-23T08:06:08.965Z,10.72
2018-12-23T08:07:26.007Z,9.23
2018-12-23T08:08:42.772Z,8.93
2018-12-23T08:09:59.933Z,9.93
2018-12-23T08:11:16.961Z,8.20
2018-12-23T08:12:34.052Z,9.05
2018-12-23T08:13:50.513Z,9.95
2018-12-23T08:15:07.338Z,9.10
2018-12-23T08:16:24.289Z,9.53
2018-12-23T08:17:40.824Z,9.43
2018-12-23T08:18:57.780Z,8.40
2018-12-23T08:20:14.871Z,8.63
2018-12-23T08:21:31.951Z,13.15
2018-12-23T08:22:48.639Z,8.85
2018-12-23T08:24:05.803Z,14.63
2018-12-23T08:25:22.656Z,11.43
2018-12-23T08:26:39.760Z,10.25
2018-12-23T08:27:57.124Z,8.60
2018-12-23T08:29:13.875Z,12.07
2018-12-23T08:30:30.656Z,14.25
2018-12-23T08:31:48.740Z,20.10
2018-12-23T08:33:05.792Z,7.25
2018-12-23T08:34:22.546Z,7.42
2018-12-23T08:35:39.885Z,6.83
2018-12-23T08:36:56.989Z,7.97
2018-12-23T08:38:13.992Z,7.33
2018-12-23T08:39:19.269Z,7.42
2018-12-23T08:40:36.577Z,11.65
2018-12-23T08:41:53.619Z,9.15
2018-12-23T08:43:10.046Z,8.68
2018-12-23T08:44:27.147Z,8.80
2018-12-23T08:45:43.739Z,7.92
2018-12-23T08:47:00.427Z,8.20
2018-12-23T08:48:17.534Z,7.35
2018-12-23T08:49:34.394Z,7.35
2018-12-23T08:50:51.614Z,7.78
2018-12-23T08:52:08.488Z,7.03
2018-12-23T08:53:25.327Z,6.83
2018-12-23T08:54:42.139Z,7.40
2018-12-23T08:55:59.519Z,7.10
2018-12-23T08:57:16.721Z,7.60
2018-12-23T08:58:33.806Z,7.53
2018-12-23T08:59:50.383Z,6.87
2018-12-23T09:01:07.129Z,6.95
2018-12-23T09:02:24.178Z,7.35
2018-12-23T09:03:40.839Z,7.37
2018-12-23T09:04:57.439Z,7.53
2018-12-23T09:06:14.294Z,8.45
2018-12-23T09:07:30.850Z,6.45
2018-12-23T09:08:47.719Z,7.37
2018-12-23T09:10:04.227Z,6.25
2018-12-23T09:11:21.274Z,7.83
2018-12-23T09:12:38.206Z,7.90
2018-12-23T09:13:55.141Z,8.30
2018-12-23T09:15:11.793Z,7.65
2018-12-23T09:16:28.392Z,6.30
2018-12-23T09:17:45.286Z,6.47
2018-12-23T09:19:02.315Z,8.18
2018-12-23T09:20:19.232Z,7.40
2018-12-23T09:21:35.694Z,6.25
2018-12-23T09:22:52.561Z,6.08
2018-12-23T09:24:09.119Z,6.25
2018-12-23T09:25:25.895Z,7.20
2018-12-23T09:26:43.283Z,5.85
2018-12-23T09:28:00.354Z,6.53
2018-12-23T09:29:17.201Z,6.15
2018-12-23T09:30:34.117Z,8.58
2018-12-23T09:31:51.082Z,7.78
2018-12-23T09:33:07.678Z,7.60
2018-12-23T09:34:24.988Z,9.10
2018-12-23T09:35:41.638Z,6.80
2018-12-23T09:36:58.795Z,5.97
2018-12-23T09:38:16.048Z,7.97
2018-12-23T09:39:33.215Z,5.97
2018-12-23T09:40:50.533Z,5.60
2018-12-23T09:42:07.624Z,6.65
2018-12-23T09:43:24.813Z,7.08
2018-12-23T09:44:41.648Z,27.48
2018-12-23T09:45:58.634Z,9.98
2018-12-23T09:47:15.434Z,8.63
2018-12-23T09:48:32.144Z,8.60
2018-12-23T09:49:48.810Z,10.15
2018-12-23T09:51:05.412Z,6.78
2018-12-23T09:52:10.475Z,6.22
2018-12-23T09:53:27.713Z,7.47
2018-12-23T09:54:44.462Z,5.37
2018-12-23T09:56:01.002Z,20.43
2018-12-23T09:57:17.735Z,5.92
2018-12-23T09:58:34.650Z,9.88
2018-12-23T09:59:51.600Z,11.68
2018-12-23T10:01:08.360Z,18.45
2018-12-23T10:02:25.102Z,7.50
2018-12-23T10:03:42.009Z,5.20
2018-12-23T10:04:58.469Z,5.03
2018-12-23T10:06:15.117Z,5.15
2018-12-23T10:07:31.975Z,5.55
2018-12-23T10:08:49.378Z,5.85
2018-12-23T10:10:06.229Z,5.10
2018-12-23T10:11:22.683Z,5.47
2018-12-23T10:12:39.312Z,4.75
2018-12-23T10:13:55.923Z,7.15
2018-12-23T10:15:12.928Z,10.20
2018-12-23T10:16:29.291Z,5.45
2018-12-23T10:17:46.468Z,8.93
2018-12-23T10:19:01.775Z,5.22
2018-12-23T10:21:40.862Z,7.03
2018-12-23T10:22:57.876Z,4.40
2018-12-23T10:24:14.413Z,9.00
2018-12-23T10:25:31.011Z,14.18
2018-12-23T10:26:47.748Z,6.70
2018-12-23T10:28:04.851Z,5.50
2018-12-23T10:29:21.581Z,6.60
2018-12-23T10:30:38.727Z,7.30
2018-12-23T10:31:55.777Z,6.95
2018-12-23T10:33:12.757Z,5.33
2018-12-23T10:34:29.528Z,9.45
2018-12-23T10:35:46.766Z,5.80
2018-12-23T10:37:03.852Z,5.80
2018-12-23T10:38:19.167Z,6.80
2018-12-23T10:39:37.449Z,7.40
2018-12-23T10:40:54.015Z,5.85
2018-12-23T10:42:10.559Z,6.08
2018-12-23T10:43:27.354Z,5.45
2018-12-23T10:44:44.615Z,5.25
2018-12-23T10:45:49.873Z,11.45
2018-12-23T10:47:14.144Z,9.85
2018-12-23T10:48:30.656Z,5.75
2018-12-23T10:49:47.607Z,8.65
2018-12-23T10:51:04.859Z,5.80
2018-12-23T10:52:21.472Z,8.15
2018-12-23T10:53:38.675Z,5.25
2018-12-23T10:54:55.103Z,4.80
2018-12-23T10:56:11.841Z,5.15
2018-12-23T10:57:28.513Z,4.87
2018-12-23T10:58:44.948Z,5.30
2018-12-23T11:00:02.159Z,4.72
2018-12-23T11:01:19.589Z,6.42
2018-12-23T11:02:36.312Z,7.37
2018-12-23T11:03:53.204Z,4.97
2018-12-23T11:05:10.323Z,6.00
2018-12-23T11:06:26.887Z,6.12
2018-12-23T11:07:43.939Z,5.00
2018-12-23T11:09:00.667Z,4.42
2018-12-23T11:10:17.426Z,5.17
2018-12-23T11:11:34.030Z,4.33
2018-12-23T11:12:53.123Z,9.55
2018-12-23T11:14:10.497Z,32.25
2018-12-23T11:15:27.153Z,7.47
2018-12-23T11:16:44.269Z,5.25
2018-12-23T11:18:02.451Z,12.13
2018-12-23T11:19:19.125Z,4.40
2018-12-23T11:20:36.173Z,5.15
2018-12-23T11:21:52.870Z,9.75
2018-12-23T11:23:09.661Z,4.35
2018-12-23T11:24:26.387Z,6.30
2018-12-23T11:25:43.325Z,5.95
2018-12-23T11:27:00.404Z,4.45
2018-12-23T11:28:17.317Z,5.40
2018-12-23T11:29:34.489Z,4.00
2018-12-23T11:30:52.016Z,3.17
2018-12-23T11:32:08.705Z,6.80
2018-12-23T11:33:25.499Z,23.00
2018-12-23T11:34:42.702Z,7.00
2018-12-23T11:35:59.726Z,7.50
2018-12-23T11:37:16.460Z,8.10
2018-12-23T11:38:35.678Z,7.65
2018-12-23T11:39:51.528Z,4.75
2018-12-23T11:41:08.582Z,4.03
2018-12-23T11:42:25.796Z,4.03
2018-12-23T11:43:42.555Z,3.62
2018-12-23T11:44:59.589Z,4.28
2018-12-23T11:46:16.154Z,5.00
2018-12-23T11:47:32.907Z,4.90
2018-12-23T11:48:50.119Z,4.95
2018-12-23T11:50:07.332Z,6.40
2018-12-23T11:51:24.603Z,5.80
2018-12-23T11:52:41.931Z,4.58
2018-12-23T11:53:58.736Z,6.12
2018-12-23T11:55:15.483Z,5.70
2018-12-23T11:56:32.486Z,8.85
2018-12-23T11:57:49.678Z,8.35
2018-12-23T11:59:06.196Z,5.80
2018-12-23T12:00:22.981Z,5.53
2018-12-23T12:01:40.034Z,6.55
2018-12-23T12:02:56.851Z,6.45
2018-12-23T12:04:13.388Z,4.92
2018-12-23T12:05:30.635Z,5.70
2018-12-23T12:06:47.656Z,6.17
2018-12-23T12:08:04.904Z,5.35
2018-12-23T12:09:21.858Z,4.60
2018-12-23T12:10:38.388Z,4.80
2018-12-23T12:11:54.983Z,5.20
2018-12-23T12:13:11.425Z,4.75
2018-12-23T12:14:28.412Z,5.20
2018-12-23T12:15:44.982Z,5.45
2018-12-23T12:17:01.765Z,6.37
2018-12-23T12:18:18.862Z,7.35
2018-12-23T12:19:35.575Z,4.72
2018-12-23T12:20:52.324Z,4.95
2018-12-23T12:22:09.408Z,4.72
2018-12-23T12:23:26.274Z,5.53
2018-12-23T12:24:43.102Z,4.58
2018-12-23T12:25:59.860Z,5.45
2018-12-23T12:27:16.423Z,5.75
2018-12-23T12:28:33.815Z,4.42
2018-12-23T12:29:50.950Z,4.60
2018-12-23T12:31:07.435Z,4.20
2018-12-23T12:32:24.621Z,4.83
2018-12-23T12:33:41.439Z,5.40
2018-12-23T12:34:59.281Z,5.35
2018-12-23T12:36:16.130Z,5.12
2018-12-23T12:37:32.940Z,5.50
2018-12-23T12:38:52.214Z,6.45
2018-12-23T12:40:08.273Z,5.55
2018-12-23T12:41:25.565Z,5.00
2018-12-23T12:42:42.051Z,5.33
2018-12-23T12:43:59.356Z,4.58
2018-12-23T12:45:16.631Z,5.03
2018-12-23T12:46:33.527Z,5.70
2018-12-23T12:47:50.984Z,5.00
2018-12-23T12:49:08.103Z,5.30
2018-12-23T12:50:24.923Z,4.90
2018-12-23T12:51:42.730Z,5.30
2018-12-23T12:52:59.348Z,5.25
2018-12-23T12:54:16.159Z,5.75
2018-12-23T12:55:32.643Z,5.62
2018-12-23T12:56:49.381Z,5.30
2018-12-23T12:58:06.012Z,5.30
2018-12-23T12:59:23.119Z,5.83
2018-12-23T13:00:40.179Z,4.78
2018-12-23T13:01:57.097Z,5.17
2018-12-23T13:03:14.276Z,5.40
2018-12-23T13:04:30.943Z,5.87
2018-12-23T13:05:48.017Z,5.42
2018-12-23T13:07:05.316Z,6.05
2018-12-23T13:08:22.007Z,5.70
2018-12-23T13:09:38.899Z,5.87
2018-12-23T13:10:55.509Z,5.55
2018-12-23T13:12:12.321Z,5.58
2018-12-23T13:13:28.896Z,5.37
2018-12-23T13:14:45.883Z,5.80
2018-12-23T13:16:02.496Z,6.30
2018-12-23T13:17:19.387Z,5.70
2018-12-23T13:18:36.034Z,5.60
2018-12-23T13:19:52.976Z,5.60
2018-12-23T13:21:09.748Z,5.12
2018-12-23T13:22:26.437Z,5.35
2018-12-23T13:23:43.404Z,4.65
2018-12-23T13:25:00.600Z,5.33
2018-12-23T13:26:17.687Z,5.30
2018-12-23T13:27:34.740Z,6.10
2018-12-23T13:28:51.971Z,5.40
2018-12-23T13:30:09.071Z,5.95
2018-12-23T13:31:25.559Z,6.12
2018-12-23T13:32:42.797Z,10.88
2018-12-23T13:33:59.635Z,5.22
2018-12-23T13:35:16.797Z,5.67
2018-12-23T13:36:33.915Z,5.65
2018-12-23T13:37:51.446Z,5.70
2018-12-23T13:39:09.134Z,7.83
2018-12-23T13:40:26.121Z,6.78
2018-12-23T13:41:43.048Z,5.60
2018-12-23T13:43:00.121Z,5.85
2018-12-23T13:44:16.959Z,5.70
2018-12-23T13:45:34.047Z,6.78
2018-12-23T13:46:50.698Z,5.60
2018-12-23T13:48:07.911Z,6.50
2018-12-23T13:49:25.279Z,6.70
2018-12-23T13:50:42.084Z,7.03
2018-12-23T13:51:59.239Z,6.40
2018-12-23T13:53:16.125Z,6.53
2018-12-23T13:54:32.960Z,7.20
2018-12-23T13:55:50.116Z,7.70
2018-12-23T13:57:06.769Z,7.53
2018-12-23T13:58:23.340Z,6.90
2018-12-23T13:59:40.636Z,7.87
2018-12-23T14:00:57.254Z,7.30
2018-12-23T14:02:14.034Z,7.75
2018-12-23T14:03:31.010Z,24.20
2018-12-23T14:04:47.906Z,8.10
2018-12-23T14:06:04.503Z,8.38
2018-12-23T14:07:21.198Z,10.03
2018-12-23T14:08:38.302Z,9.03
2018-12-23T14:09:54.906Z,8.35
2018-12-23T14:11:12.149Z,14.23
2018-12-23T14:12:29.844Z,8.30
2018-12-23T14:13:47.249Z,7.95
2018-12-23T14:15:04.262Z,7.62
2018-12-23T14:16:20.935Z,8.45
2018-12-23T14:17:37.579Z,9.30
2018-12-23T14:18:54.453Z,9.23
2018-12-23T14:20:11.172Z,10.00
2018-12-23T14:21:27.645Z,12.10
2018-12-23T14:22:44.550Z,9.68
2018-12-23T14:23:59.886Z,9.40
2018-12-23T14:25:24.056Z,9.45
2018-12-23T14:26:40.857Z,13.13
2018-12-23T14:27:57.578Z,10.25
2018-12-23T14:29:14.964Z,8.85
2018-12-23T14:30:32.180Z,8.90
2018-12-23T14:31:48.803Z,10.98
2018-12-23T14:33:05.907Z,9.40
2018-12-23T14:34:23.186Z,10.20
2018-12-23T14:35:39.757Z,10.28
2018-12-23T14:36:56.458Z,9.98
2018-12-23T14:38:13.611Z,12.45
2018-12-23T14:39:30.616Z,9.73
2018-12-23T14:40:47.240Z,10.25
2018-12-23T14:42:03.795Z,9.88
2018-12-23T14:43:21.080Z,20.85
2018-12-23T14:44:38.538Z,16.05
2018-12-23T14:45:54.989Z,11.63
2018-12-23T14:47:11.713Z,15.08
2018-12-23T14:48:28.606Z,10.00
2018-12-23T14:49:45.465Z,10.23
2018-12-23T14:51:02.487Z,9.40
2018-12-23T14:52:18.947Z,10.65
2018-12-23T14:53:35.552Z,9.85
2018-12-23T14:54:52.070Z,10.63
2018-12-23T14:56:08.804Z,10.93
2018-12-23T14:57:26.147Z,9.40
2018-12-23T14:58:43.151Z,9.40
2018-12-23T15:00:00.093Z,9.18
2018-12-23T15:01:17.279Z,11.08
2018-12-23T15:02:22.304Z,12.88
2018-12-23T15:03:27.293Z,12.37
2018-12-23T15:04:32.353Z,13.53
2018-12-23T15:05:37.387Z,5.72
2018-12-23T15:06:42.476Z,4.85
2018-12-23T15:07:47.472Z,5.70
2018-12-23T15:08:52.666Z,5.50
2018-12-23T15:09:57.622Z,4.45
2018-12-23T15:11:02.578Z,3.47
2018-12-23T15:12:07.671Z,5.33
2018-12-23T15:13:13.735Z,3.52
2018-12-23T15:14:18.714Z,4.80
2018-12-23T15:15:23.922Z,4.45
2018-12-23T15:16:28.977Z,2.70
2018-12-23T15:17:34.981Z,3.20
2018-12-23T15:18:41.935Z,3.20
2018-12-23T15:19:46.972Z,3.02
2018-12-23T15:20:51.991Z,2.60
2018-12-23T15:21:57.131Z,2.85
2018-12-23T15:23:10.495Z,2.70
2018-12-23T15:24:08.902Z,4.75
2018-12-23T15:25:13.990Z,2.75
2018-12-23T15:26:19.003Z,3.62
2018-12-23T15:27:23.988Z,4.28
2018-12-23T15:28:29.123Z,3.42
2018-12-23T15:29:34.149Z,4.25
2018-12-23T15:30:39.121Z,3.50
2018-12-23T15:31:44.135Z,3.02
2018-12-23T15:32:50.063Z,3.90
2018-12-23T15:33:55.128Z,4.00
2018-12-23T15:35:00.169Z,4.40
2018-12-23T15:36:05.259Z,5.10
2018-12-23T15:37:10.265Z,4.90
2018-12-23T15:38:15.230Z,5.10
2018-12-23T15:39:20.333Z,5.30
2018-12-23T15:40:25.365Z,5.20
2018-12-23T15:41:30.373Z,6.20
2018-12-23T15:42:35.334Z,6.10
2018-12-23T15:43:40.394Z,6.60
2018-12-23T15:44:45.392Z,6.70
2018-12-23T15:45:50.442Z,6.12
2018-12-23T15:46:55.414Z,8.20
2018-12-23T15:48:00.496Z,7.45
2018-12-23T15:49:05.493Z,7.35
2018-12-23T15:50:10.459Z,7.70
2018-12-23T15:51:15.468Z,6.95
2018-12-23T15:52:20.482Z,8.55
2018-12-23T15:53:25.448Z,7.90
2018-12-23T15:54:30.417Z,7.17
2018-12-23T15:55:35.382Z,9.03
2018-12-23T15:56:40.424Z,8.50